createdAt,value
2018-10-19T00:02:16.378Z,29.87
2018-10-19T00:04:44.921Z,31.77
2018-10-19T00:07:13.476Z,28.97
2018-10-19T00:09:42.075Z,30.37
2018-10-19T00:12:10.665Z,34.60
2018-10-19T00:14:39.151Z,31.40
2018-10-19T00:17:07.672Z,32.53
2018-10-19T00:19:36.249Z,30.80
2018-10-19T00:22:05.136Z,31.50
2018-10-19T00:24:33.683Z,33.00
2018-10-19T00:27:02.225Z,33.20
2018-10-19T00:29:30.840Z,33.40
2018-10-19T00:31:59.391Z,30.10
2018-10-19T00:34:28.091Z,30.03
2018-10-19T00:36:56.764Z,35.93
2018-10-19T00:39:25.285Z,30.63
2018-10-19T00:41:54.026Z,30.23
2018-10-19T00:44:22.602Z,29.33
2018-10-19T00:46:51.121Z,33.17
2018-10-19T00:49:19.747Z,32.17
2018-10-19T00:51:48.264Z,29.73
2018-10-19T00:54:16.880Z,29.13
2018-10-19T00:56:45.498Z,29.87
2018-10-19T00:59:14.237Z,30.67
2018-10-19T01:01:42.685Z,28.70
2018-10-19T01:04:11.341Z,28.27
2018-10-19T01:06:39.907Z,31.63
2018-10-19T01:09:09.338Z,31.23
2018-10-19T01:11:37.879Z,30.93
2018-10-19T01:14:09.156Z,28.77
2018-10-19T01:16:37.787Z,32.33
2018-10-19T01:19:06.348Z,29.87
2018-10-19T01:21:34.995Z,28.10
2018-10-19T01:24:03.615Z,30.10
2018-10-19T01:26:32.213Z,27.27
2018-10-19T01:29:00.863Z,27.83
2018-10-19T01:31:29.446Z,28.93
2018-10-19T01:33:58.100Z,28.53
2018-10-19T01:36:32.084Z,28.50
2018-10-19T01:39:00.687Z,27.33
2018-10-19T01:41:29.196Z,27.90
2018-10-19T01:43:57.850Z,26.63
2018-10-19T01:46:26.378Z,27.53
2018-10-19T01:48:55.989Z,26.13
2018-10-19T01:51:24.532Z,28.00
2018-10-19T01:53:53.143Z,29.43
2018-10-19T01:56:22.010Z,28.67
2018-10-19T01:58:50.457Z,26.47
2018-10-19T02:01:18.987Z,25.77
2018-10-19T02:03:47.521Z,25.00
2018-10-19T02:06:16.386Z,25.43
2018-10-19T02:08:45.731Z,29.57
2018-10-19T02:11:14.391Z,26.03
2018-10-19T02:13:43.107Z,28.10
2018-10-19T02:16:11.732Z,29.53
2018-10-19T02:18:40.328Z,29.60
2018-10-19T02:21:08.908Z,28.27
2018-10-19T02:23:37.480Z,25.40
2018-10-19T02:26:06.100Z,25.73
2018-10-19T02:28:34.568Z,26.80
2018-10-19T02:31:03.199Z,28.30
2018-10-19T02:33:31.755Z,29.87
2018-10-19T02:36:00.417Z,31.53
2018-10-19T02:38:28.943Z,29.40
2018-10-19T02:40:57.484Z,27.33
2018-10-19T02:43:25.956Z,25.83
2018-10-19T02:45:54.452Z,26.80
2018-10-19T02:48:23.052Z,30.40
2018-10-19T02:50:51.536Z,27.30
2018-10-19T02:53:20.235Z,27.83
2018-10-19T02:55:48.770Z,28.23
2018-10-19T02:58:17.202Z,26.80
2018-10-19T03:00:45.731Z,26.37
2018-10-19T03:03:14.365Z,29.13
2018-10-19T03:05:42.970Z,26.67
2018-10-19T03:08:11.483Z,28.47
2018-10-19T03:10:39.951Z,28.57
2018-10-19T03:13:08.473Z,27.67
2018-10-19T03:15:36.869Z,27.80
2018-10-19T03:18:05.552Z,24.27
2018-10-19T03:20:33.998Z,25.03
2018-10-19T03:23:02.722Z,25.60
2018-10-19T03:25:31.153Z,25.73
2018-10-19T03:27:59.697Z,25.10
2018-10-19T03:30:28.283Z,27.90
2018-10-19T03:32:56.849Z,22.20
2018-10-19T03:35:25.355Z,24.93
2018-10-19T03:37:53.798Z,23.17
2018-10-19T03:40:23.155Z,23.43
2018-10-19T03:42:51.594Z,21.57
2018-10-19T03:45:20.031Z,25.10
2018-10-19T03:47:52.383Z,23.03
2018-10-19T03:50:20.880Z,24.03
2018-10-19T03:52:49.274Z,24.00
2018-10-19T03:55:17.810Z,24.03
2018-10-19T03:57:46.192Z,26.27
2018-10-19T04:00:15.946Z,22.60
2018-10-19T04:02:44.401Z,21.53
2018-10-19T04:05:13.041Z,21.40
2018-10-19T04:07:41.522Z,22.00
2018-10-19T04:10:10.003Z,22.77
2018-10-19T04:12:38.517Z,23.47
2018-10-19T04:15:08.440Z,22.40
2018-10-19T04:17:36.970Z,21.87
2018-10-19T04:20:05.583Z,23.23
2018-10-19T04:22:33.969Z,22.57
2018-10-19T04:25:02.575Z,23.73
2018-10-19T04:27:31.236Z,23.60
2018-10-19T04:29:59.703Z,25.77
2018-10-19T04:32:28.173Z,26.57
2018-10-19T04:34:56.690Z,24.90
2018-10-19T04:37:25.361Z,24.07
2018-10-19T04:39:54.881Z,27.20
2018-10-19T04:42:23.547Z,24.50
2018-10-19T04:44:51.899Z,24.37
2018-10-19T04:47:20.340Z,22.17
2018-10-19T04:49:48.956Z,23.97
2018-10-19T04:52:17.484Z,24.93
2018-10-19T04:54:45.904Z,26.40
2018-10-19T04:57:14.502Z,24.67
2018-10-19T04:59:42.874Z,22.13
2018-10-19T05:02:11.371Z,24.57
2018-10-19T05:04:39.935Z,20.53
2018-10-19T05:07:08.413Z,23.13
2018-10-19T05:09:36.812Z,22.57
2018-10-19T05:12:05.354Z,22.63
2018-10-19T05:14:33.762Z,23.27
2018-10-19T05:17:02.303Z,22.30
2018-10-19T05:19:30.826Z,21.67
2018-10-19T05:21:59.275Z,24.47
2018-10-19T05:24:27.728Z,31.13
2018-10-19T05:26:56.110Z,21.73
2018-10-19T05:29:24.490Z,23.73
2018-10-19T05:31:53.021Z,26.27
2018-10-19T05:34:21.407Z,23.37
2018-10-19T05:36:49.802Z,25.53
2018-10-19T05:39:18.157Z,24.10
2018-10-19T05:41:46.566Z,27.40
2018-10-19T05:44:15.608Z,25.10
2018-10-19T05:46:44.075Z,24.67
2018-10-19T05:49:12.559Z,25.17
2018-10-19T05:51:40.928Z,26.03
2018-10-19T05:54:09.278Z,25.20
2018-10-19T05:56:37.764Z,26.77
2018-10-19T05:59:06.262Z,24.67
2018-10-19T06:01:34.603Z,27.73
2018-10-19T06:04:03.152Z,26.23
2018-10-19T06:06:31.558Z,29.03
2018-10-19T06:09:00.047Z,27.30
2018-10-19T06:11:29.016Z,27.83
2018-10-19T06:13:57.529Z,26.00
2018-10-19T06:16:25.886Z,26.20
2018-10-19T06:18:54.398Z,28.93
2018-10-19T06:21:22.879Z,28.97
2018-10-19T06:23:51.241Z,24.10
2018-10-19T06:26:19.701Z,28.53
2018-10-19T06:28:48.026Z,33.37
2018-10-19T06:31:16.409Z,27.80
2018-10-19T06:33:44.810Z,30.83
2018-10-19T06:36:13.199Z,25.23
2018-10-19T06:38:41.615Z,27.53
2018-10-19T06:41:09.990Z,28.43
2018-10-19T06:43:38.333Z,29.43
2018-10-19T06:46:06.723Z,25.97
2018-10-19T06:48:35.075Z,27.63
2018-10-19T06:51:03.474Z,27.30
2018-10-19T06:53:31.982Z,25.87
2018-10-19T06:56:00.437Z,29.30
2018-10-19T06:58:28.801Z,30.80
2018-10-19T07:00:57.134Z,28.83
2018-10-19T07:03:25.521Z,30.47
2018-10-19T07:05:54.618Z,27.03
2018-10-19T07:08:23.005Z,30.03
2018-10-19T07:10:51.371Z,28.80
2018-10-19T07:13:19.754Z,34.60
2018-10-19T07:15:48.262Z,31.20
2018-10-19T07:18:16.671Z,29.63
2018-10-19T07:20:45.055Z,28.00
2018-10-19T07:23:13.502Z,29.83
2018-10-19T07:25:41.809Z,32.17
2018-10-19T07:28:10.482Z,29.70
2018-10-19T07:30:39.152Z,30.10
2018-10-19T07:33:07.597Z,31.40
2018-10-19T07:35:35.999Z,32.07
2018-10-19T07:38:04.915Z,35.80
2018-10-19T07:40:33.275Z,31.53
2018-10-19T07:43:01.721Z,28.83
2018-10-19T07:45:30.066Z,29.17
2018-10-19T07:47:58.658Z,28.97
2018-10-19T07:50:26.902Z,31.90
2018-10-19T07:52:55.343Z,32.20
2018-10-19T07:55:23.702Z,33.57
2018-10-19T07:57:52.073Z,30.17
2018-10-19T08:00:20.649Z,31.53
2018-10-19T08:02:48.971Z,33.13
2018-10-19T08:05:17.439Z,32.37
2018-10-19T08:07:45.876Z,33.73
2018-10-19T08:10:14.286Z,34.10
2018-10-19T08:12:42.719Z,35.97
2018-10-19T08:15:11.157Z,29.30
2018-10-19T08:17:39.605Z,38.23
2018-10-19T08:20:08.619Z,30.37
2018-10-19T08:22:37.218Z,33.10
2018-10-19T08:25:06.070Z,32.90
2018-10-19T08:27:34.535Z,36.27
2018-10-19T08:30:03.209Z,35.50
2018-10-19T08:32:31.916Z,33.40
2018-10-19T08:35:02.814Z,32.23
2018-10-19T08:37:31.603Z,33.73
2018-10-19T08:40:01.395Z,31.67
2018-10-19T08:42:29.992Z,32.33
2018-10-19T08:44:58.524Z,38.33
2018-10-19T08:47:27.247Z,35.70
2018-10-19T08:49:55.858Z,31.37
2018-10-19T08:52:25.512Z,33.17
2018-10-19T08:54:54.136Z,34.00
2018-10-19T08:57:22.894Z,33.70
2018-10-19T08:59:51.847Z,47.93
2018-10-19T09:02:20.686Z,36.63
2018-10-19T09:04:50.007Z,33.13
2018-10-19T09:07:19.236Z,39.53
2018-10-19T09:09:48.167Z,35.47
2018-10-19T09:12:17.138Z,40.57
2018-10-19T09:14:51.708Z,36.00
2018-10-19T09:17:20.796Z,37.50
2018-10-19T09:19:50.218Z,35.27
2018-10-19T09:22:20.159Z,46.60
2018-10-19T09:24:49.258Z,39.40
2018-10-19T09:27:18.566Z,48.50
2018-10-19T09:29:47.821Z,54.97
2018-10-19T09:32:17.140Z,35.50
2018-10-19T09:34:46.119Z,39.90
2018-10-19T09:37:15.187Z,36.17
2018-10-19T09:39:44.808Z,35.57
2018-10-19T09:42:13.846Z,37.53
2018-10-19T09:44:43.541Z,49.57
2018-10-19T09:47:12.808Z,34.20
2018-10-19T09:49:43.076Z,34.57
2018-10-19T09:52:11.887Z,39.90
2018-10-19T09:54:40.525Z,38.83
2018-10-19T09:57:09.215Z,38.67
2018-10-19T09:59:38.115Z,36.50
2018-10-19T10:02:06.953Z,35.07
2018-10-19T10:04:35.483Z,38.97
2018-10-19T10:07:04.384Z,34.83
2018-10-19T10:09:32.970Z,39.43
2018-10-19T10:12:02.059Z,36.73
2018-10-19T10:14:30.722Z,42.60
2018-10-19T10:16:59.533Z,48.20
2018-10-19T10:19:28.344Z,34.77
2018-10-19T10:21:57.232Z,32.23
2018-10-19T10:24:25.956Z,33.83
2018-10-19T10:26:54.722Z,36.13
2018-10-19T10:29:23.794Z,34.07
2018-10-19T10:31:52.679Z,37.23
2018-10-19T10:34:21.444Z,36.37
2018-10-19T10:36:50.229Z,40.57
2018-10-19T10:39:19.188Z,42.70
2018-10-19T10:41:48.167Z,34.50
2018-10-19T10:44:23.750Z,35.43
2018-10-19T10:46:52.628Z,32.20
2018-10-19T10:49:21.342Z,47.17
2018-10-19T10:51:51.348Z,32.40
2018-10-19T10:54:20.447Z,36.57
2018-10-19T10:56:49.625Z,35.07
2018-10-19T10:59:18.368Z,32.30
2018-10-19T11:01:47.327Z,31.87
2018-10-19T11:04:16.605Z,29.93
2018-10-19T11:06:45.320Z,36.83
2018-10-19T11:09:14.609Z,38.13
2018-10-19T11:11:43.450Z,35.17
2018-10-19T11:14:13.380Z,34.43
2018-10-19T11:16:42.709Z,36.87
2018-10-19T11:19:12.686Z,41.33
2018-10-19T11:21:41.287Z,37.73
2018-10-19T11:24:09.934Z,30.90
2018-10-19T11:26:38.694Z,30.57
2018-10-19T11:29:07.345Z,30.82
2018-10-19T11:31:36.055Z,31.83
2018-10-19T11:34:05.039Z,34.20
2018-10-19T11:36:33.647Z,30.93
2018-10-19T11:39:02.639Z,33.77
2018-10-19T11:41:31.278Z,34.77
2018-10-19T11:44:00.220Z,33.58
2018-10-19T11:46:28.867Z,31.77
2018-10-19T11:48:57.918Z,37.17
2018-10-19T11:51:26.635Z,30.23
2018-10-19T11:53:55.365Z,36.97
2018-10-19T11:56:23.980Z,31.95
2018-10-19T11:58:52.812Z,35.10
2018-10-19T12:01:21.893Z,33.53
2018-10-19T12:03:50.827Z,35.97
2018-10-19T12:06:19.806Z,53.38
2018-10-19T12:08:48.641Z,38.02
2018-10-19T12:11:18.582Z,33.75
2018-10-19T12:13:47.425Z,29.48
2018-10-19T12:16:16.584Z,33.23
2018-10-19T12:18:45.742Z,34.73
2018-10-19T12:21:14.508Z,28.30
2018-10-19T12:23:43.606Z,34.18
2018-10-19T12:26:12.466Z,29.72
2018-10-19T12:28:41.843Z,35.33
2018-10-19T12:31:10.715Z,32.45
2018-10-19T12:33:39.957Z,30.52
2018-10-19T12:36:08.701Z,28.60
2018-10-19T12:38:37.699Z,42.17
2018-10-19T12:41:07.047Z,37.75
2018-10-19T12:43:36.498Z,30.55
2018-10-19T12:46:30.411Z,33.08
2018-10-19T12:48:59.242Z,30.88
2018-10-19T12:51:28.041Z,34.10
2018-10-19T12:53:56.854Z,27.45
2018-10-19T12:56:25.444Z,31.00
2018-10-19T12:58:54.968Z,28.70
2018-10-19T13:01:25.089Z,37.05
2018-10-19T13:03:53.851Z,29.30
2018-10-19T13:06:22.607Z,29.42
2018-10-19T13:08:52.001Z,28.92
2018-10-19T13:11:20.827Z,25.40
2018-10-19T13:13:49.660Z,26.23
2018-10-19T13:16:18.579Z,23.77
2018-10-19T13:18:47.490Z,24.50
2018-10-19T13:21:16.369Z,22.62
2018-10-19T13:23:45.288Z,28.55
2018-10-19T13:26:13.919Z,27.87
2018-10-19T13:28:42.899Z,25.12
2018-10-19T13:31:11.877Z,32.55
2018-10-19T13:33:40.692Z,27.30
2018-10-19T13:36:09.596Z,27.55
2018-10-19T13:38:38.188Z,24.07
2018-10-19T13:41:06.971Z,28.90
2018-10-19T13:43:35.575Z,29.60
2018-10-19T13:46:04.562Z,26.15
2018-10-19T13:48:33.193Z,26.45
2018-10-19T13:51:01.979Z,28.47
2018-10-19T13:53:31.056Z,27.58
2018-10-19T13:55:59.983Z,32.00
2018-10-19T13:58:29.087Z,28.77
2018-10-19T14:00:57.769Z,28.50
2018-10-19T14:03:26.587Z,27.77
2018-10-19T14:05:55.347Z,30.72
2018-10-19T14:08:24.132Z,29.72
2018-10-19T14:10:52.803Z,32.28
2018-10-19T14:13:21.687Z,26.42
2018-10-19T14:15:50.734Z,28.27
2018-10-19T14:18:19.603Z,27.45
2018-10-19T14:20:48.990Z,28.05
2018-10-19T14:23:18.978Z,32.55
2018-10-19T14:25:48.760Z,26.50
2018-10-19T14:28:18.747Z,29.90
2018-10-19T14:30:48.947Z,34.10
2018-10-19T14:33:19.176Z,32.63
2018-10-19T14:35:48.100Z,30.05
2018-10-19T14:38:18.547Z,27.65
2018-10-19T14:40:48.881Z,25.57
2018-10-19T14:43:17.796Z,27.45
2018-10-19T14:45:46.795Z,30.72
2018-10-19T14:48:15.874Z,28.57
2018-10-19T14:50:46.340Z,25.60
2018-10-19T14:53:15.312Z,26.97
2018-10-19T14:55:44.417Z,29.23
2018-10-19T14:58:20.818Z,29.40
2018-10-19T15:00:49.456Z,24.50
2018-10-19T15:03:18.145Z,29.02
2018-10-19T15:05:46.864Z,29.45
2018-10-19T15:08:15.322Z,27.02
2018-10-19T15:10:44.287Z,28.17
2018-10-19T15:13:12.480Z,24.05
2018-10-19T15:15:41.030Z,25.55
2018-10-19T15:18:09.614Z,30.02
2018-10-19T15:20:38.092Z,28.73
2018-10-19T15:23:06.671Z,28.62
2018-10-19T15:25:35.186Z,81.10
2018-10-19T15:28:03.772Z,35.58
2018-10-19T15:30:32.299Z,26.15
2018-10-19T15:33:00.801Z,26.80
2018-10-19T15:35:29.522Z,26.75
2018-10-19T15:37:57.993Z,28.40
2018-10-19T15:40:26.444Z,27.85
2018-10-19T15:42:54.921Z,28.98
2018-10-19T15:45:23.456Z,26.77
2018-10-19T15:47:52.025Z,28.52
2018-10-19T15:50:20.529Z,27.93
2018-10-19T15:52:49.152Z,26.73
2018-10-19T15:55:17.773Z,27.75
2018-10-19T15:57:46.263Z,31.23
2018-10-19T16:00:14.876Z,31.73
2018-10-19T16:02:43.375Z,27.13
2018-10-19T16:05:11.967Z,33.25
2018-10-19T16:07:40.516Z,36.47
2018-10-19T16:10:09.073Z,36.33
2018-10-19T16:12:37.634Z,32.95
2018-10-19T16:15:08.941Z,31.30
2018-10-19T16:17:45.244Z,31.47
2018-10-19T16:20:13.751Z,34.63
2018-10-19T16:22:42.437Z,31.57
2018-10-19T16:25:10.910Z,32.53
2018-10-19T16:27:39.741Z,33.63
2018-10-19T16:30:09.461Z,33.10
2018-10-19T16:32:38.489Z,39.90
2018-10-19T16:35:08.119Z,36.20
2018-10-19T16:37:37.019Z,41.47
2018-10-19T16:40:06.729Z,35.00
2018-10-19T16:42:36.150Z,36.07
2018-10-19T16:45:05.429Z,35.27
2018-10-19T16:47:34.169Z,35.47
2018-10-19T16:50:02.703Z,35.93
2018-10-19T16:52:31.277Z,118.33
2018-10-19T16:54:59.658Z,57.37
2018-10-19T16:57:28.653Z,42.07
2018-10-19T16:59:57.172Z,49.40
2018-10-19T17:02:25.651Z,56.23
2018-10-19T17:04:54.078Z,50.57
2018-10-19T17:07:22.610Z,45.77
2018-10-19T17:09:51.165Z,58.23
2018-10-19T17:12:19.658Z,42.60
2018-10-19T17:14:48.176Z,47.97
2018-10-19T17:17:16.630Z,74.30
2018-10-19T17:19:45.148Z,95.30
2018-10-19T17:22:13.858Z,42.73
2018-10-19T17:24:42.471Z,62.33
2018-10-19T17:27:10.965Z,46.73
2018-10-19T17:29:39.446Z,51.43
2018-10-19T17:32:08.095Z,53.53
2018-10-19T17:34:38.141Z,61.97
2018-10-19T17:37:10.922Z,57.10
2018-10-19T17:39:39.827Z,93.60
2018-10-19T17:42:08.463Z,84.00
2018-10-19T17:44:36.955Z,106.63
2018-10-19T17:47:05.912Z,152.40
2018-10-19T17:49:34.432Z,85.10
2018-10-19T17:52:02.927Z,53.77
2018-10-19T17:54:31.629Z,40.77
2018-10-19T17:56:59.955Z,51.37
2018-10-19T17:59:28.540Z,48.87
2018-10-19T18:01:57.079Z,87.93
2018-10-19T18:04:25.575Z,54.43
2018-10-19T18:06:54.204Z,63.23
2018-10-19T18:09:23.061Z,92.73
2018-10-19T18:11:51.685Z,86.77
2018-10-19T18:14:20.406Z,77.37
2018-10-19T18:16:48.957Z,118.23
2018-10-19T18:19:17.468Z,98.43
2018-10-19T18:21:46.313Z,177.73
2018-10-19T18:24:14.749Z,140.47
2018-10-19T18:26:43.512Z,88.67
2018-10-19T18:29:12.927Z,129.80
2018-10-19T18:31:41.405Z,86.53
2018-10-19T18:34:09.987Z,119.63
2018-10-19T18:36:38.962Z,148.77
2018-10-19T18:39:11.164Z,99.73
2018-10-19T18:41:39.825Z,78.47
2018-10-19T18:44:08.593Z,98.90
2018-10-19T18:46:37.475Z,102.33
2018-10-19T18:49:06.963Z,88.23
2018-10-19T18:51:35.689Z,74.07
2018-10-19T18:54:05.163Z,89.60
2018-10-19T18:56:33.623Z,85.70
2018-10-19T18:59:02.252Z,89.07
2018-10-19T19:01:30.839Z,120.60
2018-10-19T19:03:59.228Z,127.07
2018-10-19T19:06:27.706Z,93.43
2018-10-19T19:08:57.074Z,74.17
2018-10-19T19:11:25.484Z,58.60
2018-10-19T19:13:54.117Z,64.53
2018-10-19T19:16:28.105Z,61.53
2018-10-19T19:18:56.488Z,62.70
2018-10-19T19:21:24.959Z,73.13
2018-10-19T19:23:59.007Z,91.80
2018-10-19T19:26:28.126Z,120.30
2018-10-19T19:28:56.844Z,95.43
2018-10-19T19:31:25.331Z,60.67
2018-10-19T19:33:59.806Z,70.63
2018-10-19T19:36:28.585Z,52.80
2018-10-19T19:38:57.076Z,67.77
2018-10-19T19:41:30.799Z,50.70
2018-10-19T19:43:59.627Z,59.73
2018-10-19T19:46:28.150Z,58.13
2018-10-19T19:49:02.144Z,62.23
2018-10-19T19:51:30.743Z,76.67
2018-10-19T19:53:59.352Z,87.83
2018-10-19T19:56:28.307Z,78.70
2018-10-19T19:58:56.908Z,78.77
2018-10-19T20:01:25.773Z,75.23
2018-10-19T20:03:54.368Z,61.57
2018-10-19T20:06:23.378Z,45.80
2018-10-19T20:08:51.945Z,45.60
2018-10-19T20:11:20.447Z,42.80
2018-10-19T20:13:48.900Z,43.90
2018-10-19T20:16:17.523Z,41.63
2018-10-19T20:18:45.972Z,41.73
2018-10-19T20:21:14.502Z,38.80
2018-10-19T20:23:43.020Z,57.87
2018-10-19T20:26:11.580Z,40.33
2018-10-19T20:28:40.297Z,43.40
2018-10-19T20:31:08.801Z,57.40
2018-10-19T20:33:37.424Z,84.57
2018-10-19T20:36:05.978Z,74.80
2018-10-19T20:38:34.429Z,96.17
2018-10-19T20:41:03.001Z,75.10
2018-10-19T20:43:31.790Z,53.07
2018-10-19T20:46:00.321Z,51.13
2018-10-19T20:48:28.822Z,62.30
2018-10-19T20:50:57.544Z,61.80
2018-10-19T20:53:26.207Z,59.37
2018-10-19T20:55:54.875Z,49.87
2018-10-19T20:58:23.366Z,52.63
2018-10-19T21:00:51.908Z,58.93
2018-10-19T21:03:20.422Z,62.80
2018-10-19T21:05:48.998Z,48.17
2018-10-19T21:08:17.499Z,43.20
2018-10-19T21:10:46.060Z,74.00
2018-10-19T21:13:14.576Z,75.90
2018-10-19T21:15:43.037Z,59.77
2018-10-19T21:18:11.560Z,60.30
2018-10-19T21:20:39.932Z,76.17
2018-10-19T21:23:08.457Z,58.63
2018-10-19T21:25:36.991Z,56.37
2018-10-19T21:28:05.753Z,60.07
2018-10-19T21:30:34.348Z,62.80
2018-10-19T21:33:02.910Z,56.60
2018-10-19T21:35:31.536Z,48.00
2018-10-19T21:38:00.228Z,46.47
2018-10-19T21:40:28.704Z,51.67
2018-10-19T21:42:57.277Z,58.03
2018-10-19T21:45:25.904Z,71.60
2018-10-19T21:47:54.338Z,59.10
2018-10-19T21:50:23.994Z,52.87
2018-10-19T21:52:53.470Z,50.33
2018-10-19T21:55:21.946Z,60.87
2018-10-19T21:57:50.415Z,55.23
2018-10-19T22:00:18.966Z,59.73
2018-10-19T22:02:47.609Z,60.67
2018-10-19T22:05:16.304Z,58.20
2018-10-19T22:07:44.933Z,64.87
2018-10-19T22:10:13.595Z,75.50
2018-10-19T22:12:48.620Z,62.67
2018-10-19T22:15:17.060Z,47.10
2018-10-19T22:17:45.653Z,61.93
2018-10-19T22:20:14.290Z,56.33
2018-10-19T22:22:43.174Z,73.57
2018-10-19T22:25:12.514Z,68.57
2018-10-19T22:27:40.994Z,64.57
2018-10-19T22:30:10.096Z,55.70
2018-10-19T22:32:38.923Z,63.07
2018-10-19T22:35:07.645Z,61.27
2018-10-19T22:37:36.143Z,60.87
2018-10-19T22:40:06.174Z,54.20
2018-10-19T22:42:34.777Z,48.40
2018-10-19T22:45:03.457Z,72.13
2018-10-19T22:47:32.034Z,60.13
2018-10-19T22:50:00.522Z,50.63
2018-10-19T22:52:28.989Z,45.37
2018-10-19T22:54:57.489Z,51.27
2018-10-19T22:57:25.980Z,50.23
2018-10-19T22:59:54.717Z,49.90
2018-10-19T23:02:23.152Z,48.00
2018-10-19T23:04:51.735Z,46.53
2018-10-19T23:07:20.407Z,69.07
2018-10-19T23:09:48.868Z,49.40
2018-10-19T23:12:17.337Z,55.87
2018-10-19T23:14:46.111Z,103.93
2018-10-19T23:17:14.699Z,53.53
2018-10-19T23:19:43.154Z,47.10
2018-10-19T23:22:11.895Z,54.47
2018-10-19T23:24:40.528Z,45.97
2018-10-19T23:27:09.165Z,53.13
2018-10-19T23:29:37.829Z,44.20
2018-10-19T23:32:06.511Z,48.60
2018-10-19T23:34:35.464Z,53.17
2018-10-19T23:37:04.302Z,48.23
2018-10-19T23:39:32.928Z,55.30
2018-10-19T23:42:01.558Z,47.57
2018-10-19T23:44:30.181Z,49.07
2018-10-19T23:46:58.758Z,51.17
2018-10-19T23:49:27.516Z,45.30
2018-10-19T23:51:56.198Z,47.40
2018-10-19T23:54:24.800Z,43.40
2018-10-19T23:56:53.438Z,46.43
2018-10-19T23:59:22.091Z,49.00
